createdAt,value
2017-09-29T00:00:55.347Z,1010.78
2017-09-29T00:01:55.273Z,1010.77
2017-09-29T00:02:55.191Z,1010.77
2017-09-29T00:03:56.263Z,1010.79
2017-09-29T00:04:55.045Z,1010.79
2017-09-29T00:05:54.958Z,1010.81
2017-09-29T00:06:54.873Z,1010.78
2017-09-29T00:07:54.794Z,1010.84
2017-09-29T00:08:54.727Z,1010.83
2017-09-29T00:09:54.637Z,1010.82
2017-09-29T00:10:54.559Z,1010.83
2017-09-29T00:11:54.477Z,1010.82
2017-09-29T00:12:54.398Z,1010.80
2017-09-29T00:13:54.326Z,1010.82
2017-09-29T00:14:54.243Z,1010.81
2017-09-29T00:15:54.165Z,1010.83
2017-09-29T00:16:54.103Z,1010.79
2017-09-29T00:17:54.007Z,1010.81
2017-09-29T00:18:53.932Z,1010.80
2017-09-29T00:19:53.857Z,1010.79
2017-09-29T00:20:53.776Z,1010.76
2017-09-29T00:21:53.699Z,1010.77
2017-09-29T00:22:53.616Z,1010.78
2017-09-29T00:23:53.533Z,1010.82
2017-09-29T00:24:53.452Z,1010.79
2017-09-29T00:25:53.386Z,1010.81
2017-09-29T00:26:53.298Z,1010.80
2017-09-29T00:27:53.225Z,1010.81
2017-09-29T00:28:53.143Z,1010.75
2017-09-29T00:29:53.064Z,1010.70
2017-09-29T00:30:52.978Z,1010.74
2017-09-29T00:31:52.926Z,1010.71
2017-09-29T00:32:52.834Z,1010.77
2017-09-29T00:33:52.748Z,1010.73
2017-09-29T00:34:52.696Z,1010.71
2017-09-29T00:35:52.624Z,1010.73
2017-09-29T00:36:52.514Z,1010.71
2017-09-29T00:37:52.445Z,1010.74
2017-09-29T00:38:52.359Z,1010.70
2017-09-29T00:39:52.272Z,1010.72
2017-09-29T00:40:52.203Z,1010.72
2017-09-29T00:41:52.118Z,1010.72
2017-09-29T00:42:52.038Z,1010.72
2017-09-29T00:43:51.959Z,1010.72
2017-09-29T00:44:51.888Z,1010.69
2017-09-29T00:45:51.804Z,1010.72
2017-09-29T00:46:51.731Z,1010.71
2017-09-29T00:47:51.651Z,1010.73
2017-09-29T00:48:51.568Z,1010.72
2017-09-29T00:49:51.488Z,1010.72
2017-09-29T00:50:51.431Z,1010.70
2017-09-29T00:51:51.335Z,1010.67
2017-09-29T00:52:51.258Z,1010.66
2017-09-29T00:53:51.182Z,1010.64
2017-09-29T00:54:51.102Z,1010.65
2017-09-29T00:55:51.023Z,1010.68
2017-09-29T00:56:50.942Z,1010.68
2017-09-29T00:57:50.867Z,1010.69
2017-09-29T00:58:50.812Z,1010.69
2017-09-29T00:59:50.710Z,1010.71
2017-09-29T01:00:50.635Z,1010.69
2017-09-29T01:01:50.558Z,1010.65
2017-09-29T01:02:50.470Z,1010.68
2017-09-29T01:03:50.394Z,1010.66
2017-09-29T01:04:50.315Z,1010.69
2017-09-29T01:05:50.237Z,1010.64
2017-09-29T01:06:50.159Z,1010.69
2017-09-29T01:07:50.082Z,1010.65
2017-09-29T01:08:50.009Z,1010.71
2017-09-29T01:09:49.926Z,1010.66
2017-09-29T01:10:49.849Z,1010.67
2017-09-29T01:11:49.773Z,1010.65
2017-09-29T01:12:49.695Z,1010.62
2017-09-29T01:13:49.612Z,1010.60
2017-09-29T01:14:49.544Z,1010.63
2017-09-29T01:15:49.466Z,1010.58
2017-09-29T01:16:49.381Z,1010.60
2017-09-29T01:17:49.306Z,1010.63
2017-09-29T01:18:49.217Z,1010.64
2017-09-29T01:19:49.141Z,1010.64
2017-09-29T01:20:49.077Z,1010.62
2017-09-29T01:21:48.994Z,1010.63
2017-09-29T01:22:48.910Z,1010.59
2017-09-29T01:23:48.839Z,1010.55
2017-09-29T01:24:48.754Z,1010.56
2017-09-29T01:25:48.675Z,1010.55
2017-09-29T01:26:48.608Z,1010.51
2017-09-29T01:27:48.525Z,1010.47
2017-09-29T01:28:48.441Z,1010.47
2017-09-29T01:29:48.372Z,1010.45
2017-09-29T01:30:48.289Z,1010.46
2017-09-29T01:31:48.201Z,1010.44
2017-09-29T01:32:48.125Z,1010.42
2017-09-29T01:33:48.057Z,1010.40
2017-09-29T01:34:47.965Z,1010.41
2017-09-29T01:35:47.897Z,1010.46
2017-09-29T01:36:47.808Z,1010.41
2017-09-29T01:37:47.733Z,1010.41
2017-09-29T01:38:47.654Z,1010.38
2017-09-29T01:39:47.597Z,1010.38
2017-09-29T01:40:47.500Z,1010.40
2017-09-29T01:41:47.453Z,1010.40
2017-09-29T01:42:47.347Z,1010.41
2017-09-29T01:43:47.266Z,1010.37
2017-09-29T01:44:47.185Z,1010.40
2017-09-29T01:45:47.108Z,1010.39
2017-09-29T01:46:47.028Z,1010.41
2017-09-29T01:47:46.963Z,1010.43
2017-09-29T01:48:46.876Z,1010.44
2017-09-29T01:49:46.795Z,1010.42
2017-09-29T01:50:46.722Z,1010.41
2017-09-29T01:51:46.638Z,1010.39
2017-09-29T01:52:46.562Z,1010.39
2017-09-29T01:53:46.484Z,1010.40
2017-09-29T01:54:46.401Z,1010.41
2017-09-29T01:55:46.320Z,1010.42
2017-09-29T01:56:46.244Z,1010.41
2017-09-29T01:57:46.165Z,1010.38
2017-09-29T01:58:46.092Z,1010.39
2017-09-29T01:59:46.032Z,1010.37
2017-09-29T02:00:45.931Z,1010.37
2017-09-29T02:01:45.851Z,1010.39
2017-09-29T02:02:45.777Z,1010.37
2017-09-29T02:03:45.695Z,1010.37
2017-09-29T02:04:45.620Z,1010.38
2017-09-29T02:05:45.545Z,1010.36
2017-09-29T02:06:45.459Z,1010.39
2017-09-29T02:07:45.378Z,1010.37
2017-09-29T02:08:45.315Z,1010.38
2017-09-29T02:09:45.225Z,1010.39
2017-09-29T02:10:45.150Z,1010.39
2017-09-29T02:11:45.072Z,1010.38
2017-09-29T02:12:44.992Z,1010.40
2017-09-29T02:13:44.911Z,1010.40
2017-09-29T02:14:44.869Z,1010.40
2017-09-29T02:15:44.754Z,1010.35
2017-09-29T02:16:44.674Z,1010.38
2017-09-29T02:17:44.617Z,1010.33
2017-09-29T02:18:44.517Z,1010.33
2017-09-29T02:19:44.468Z,1010.36
2017-09-29T02:20:44.365Z,1010.36
2017-09-29T02:21:44.285Z,1010.38
2017-09-29T02:22:44.212Z,1010.36
2017-09-29T02:23:44.132Z,1010.36
2017-09-29T02:24:44.049Z,1010.33
2017-09-29T02:25:43.974Z,1010.34
2017-09-29T02:26:43.891Z,1010.33
2017-09-29T02:27:43.820Z,1010.35
2017-09-29T02:28:43.761Z,1010.30
2017-09-29T02:29:43.661Z,1010.30
2017-09-29T02:30:43.577Z,1010.28
2017-09-29T02:31:43.505Z,1010.25
2017-09-29T02:32:43.423Z,1010.27
2017-09-29T02:33:43.350Z,1010.27
2017-09-29T02:34:43.264Z,1010.31
2017-09-29T02:35:43.186Z,1010.34
2017-09-29T02:36:43.111Z,1010.31
2017-09-29T02:37:43.029Z,1010.31
2017-09-29T02:38:42.952Z,1010.36
2017-09-29T02:39:42.876Z,1010.33
2017-09-29T02:40:42.799Z,1010.32
2017-09-29T02:41:42.730Z,1010.31
2017-09-29T02:42:42.638Z,1010.28
2017-09-29T02:43:42.576Z,1010.30
2017-09-29T02:44:42.481Z,1010.24
2017-09-29T02:45:42.413Z,1010.28
2017-09-29T02:46:42.323Z,1010.29
2017-09-29T02:47:42.246Z,1010.27
2017-09-29T02:48:42.167Z,1010.32
2017-09-29T02:49:42.089Z,1010.33
2017-09-29T02:50:42.014Z,1010.30
2017-09-29T02:51:41.940Z,1010.31
2017-09-29T02:52:41.853Z,1010.29
2017-09-29T02:53:41.776Z,1010.29
2017-09-29T02:54:41.701Z,1010.27
2017-09-29T02:55:41.639Z,1010.30
2017-09-29T02:56:41.545Z,1010.27
2017-09-29T02:57:41.463Z,1010.30
2017-09-29T02:58:41.391Z,1010.27
2017-09-29T02:59:41.307Z,1010.24
2017-09-29T03:00:41.232Z,1010.24
2017-09-29T03:01:41.149Z,1010.25
2017-09-29T03:02:41.071Z,1010.29
2017-09-29T03:03:40.999Z,1010.24
2017-09-29T03:04:40.916Z,1010.26
2017-09-29T03:05:40.834Z,1010.27
2017-09-29T03:06:40.760Z,1010.30
2017-09-29T03:07:40.679Z,1010.30
2017-09-29T03:08:40.597Z,1010.35
2017-09-29T03:09:40.517Z,1010.35
2017-09-29T03:10:40.447Z,1010.36
2017-09-29T03:11:40.362Z,1010.34
2017-09-29T03:12:40.297Z,1010.36
2017-09-29T03:13:40.208Z,1010.33
2017-09-29T03:14:40.130Z,1010.37
2017-09-29T03:15:40.082Z,1010.35
2017-09-29T03:16:39.980Z,1010.30
2017-09-29T03:17:39.898Z,1010.32
2017-09-29T03:18:39.813Z,1010.22
2017-09-29T03:19:39.734Z,1010.26
2017-09-29T03:20:39.660Z,1010.20
2017-09-29T03:21:39.585Z,1010.19
2017-09-29T03:22:39.500Z,1010.23
2017-09-29T03:23:39.450Z,1010.20
2017-09-29T03:24:39.353Z,1010.19
2017-09-29T03:25:39.267Z,1010.18
2017-09-29T03:26:39.186Z,1010.23
2017-09-29T03:27:39.113Z,1010.25
2017-09-29T03:28:39.028Z,1010.25
2017-09-29T03:29:38.948Z,1010.19
2017-09-29T03:30:38.893Z,1010.21
2017-09-29T03:31:38.791Z,1010.16
2017-09-29T03:32:38.718Z,1010.18
2017-09-29T03:33:38.639Z,1010.19
2017-09-29T03:34:38.558Z,1010.22
2017-09-29T03:35:38.477Z,1010.24
2017-09-29T03:36:38.403Z,1010.25
2017-09-29T03:37:38.323Z,1010.26
2017-09-29T03:38:38.248Z,1010.23
2017-09-29T03:39:38.170Z,1010.21
2017-09-29T03:40:38.092Z,1010.13
2017-09-29T03:41:38.021Z,1010.15
2017-09-29T03:42:37.929Z,1010.16
2017-09-29T03:43:37.886Z,1010.19
2017-09-29T03:44:37.774Z,1010.19
2017-09-29T03:45:37.714Z,1010.16
2017-09-29T03:46:37.615Z,1010.16
2017-09-29T03:47:37.536Z,1010.17
2017-09-29T03:48:37.459Z,1010.21
2017-09-29T03:49:37.374Z,1010.25
2017-09-29T03:50:37.296Z,1010.27
2017-09-29T03:51:37.220Z,1010.32
2017-09-29T03:52:37.140Z,1010.25
2017-09-29T03:53:37.072Z,1010.24
2017-09-29T03:54:36.988Z,1010.27
2017-09-29T03:55:36.909Z,1010.23
2017-09-29T03:56:36.852Z,1010.23
2017-09-29T03:57:36.750Z,1010.23
2017-09-29T03:58:36.701Z,1010.23
2017-09-29T03:59:36.594Z,1010.23
2017-09-29T04:00:36.539Z,1010.24
2017-09-29T04:01:36.444Z,1010.22
2017-09-29T04:02:36.358Z,1010.25
2017-09-29T04:03:36.277Z,1010.26
2017-09-29T04:04:36.212Z,1010.23
2017-09-29T04:05:36.134Z,1010.23
2017-09-29T04:06:36.046Z,1010.18
2017-09-29T04:07:35.972Z,1010.20
2017-09-29T04:08:35.887Z,1010.22
2017-09-29T04:09:35.805Z,1010.18
2017-09-29T04:10:35.735Z,1010.14
2017-09-29T04:11:35.657Z,1010.17
2017-09-29T04:12:35.580Z,1010.16
2017-09-29T04:13:35.500Z,1010.14
2017-09-29T04:14:35.416Z,1010.17
2017-09-29T04:15:35.339Z,1010.14
2017-09-29T04:16:35.258Z,1010.14
2017-09-29T04:17:35.207Z,1010.12
2017-09-29T04:18:35.103Z,1010.13
2017-09-29T04:19:35.022Z,1010.12
2017-09-29T04:20:34.947Z,1010.15
2017-09-29T04:21:34.865Z,1010.11
2017-09-29T04:22:34.789Z,1010.09
2017-09-29T04:23:34.719Z,1010.09
2017-09-29T04:24:34.628Z,1010.07
2017-09-29T04:25:34.556Z,1010.06
2017-09-29T04:26:34.476Z,1010.04
2017-09-29T04:27:34.390Z,1010.05
2017-09-29T04:28:34.315Z,1009.99
2017-09-29T04:29:34.244Z,1009.97
2017-09-29T04:30:34.162Z,1009.98
2017-09-29T04:31:34.075Z,1010.02
2017-09-29T04:32:33.993Z,1010.03
2017-09-29T04:33:33.916Z,1009.97
2017-09-29T04:34:33.839Z,1009.97
2017-09-29T04:35:33.759Z,1009.94
2017-09-29T04:36:33.687Z,1010.00
2017-09-29T04:37:33.597Z,1009.97
2017-09-29T04:38:33.521Z,1009.99
2017-09-29T04:39:33.451Z,1010.00
2017-09-29T04:40:33.361Z,1010.04
2017-09-29T04:41:33.285Z,1010.01
2017-09-29T04:42:33.213Z,1010.04
2017-09-29T04:43:33.124Z,1010.02
2017-09-29T04:44:33.042Z,1010.00
2017-09-29T04:45:32.964Z,1010.01
2017-09-29T04:46:32.949Z,1010.06
2017-09-29T04:47:32.807Z,1010.06
2017-09-29T04:48:32.727Z,1010.04
2017-09-29T04:49:32.651Z,1010.05
2017-09-29T04:50:32.572Z,1010.07
2017-09-29T04:51:32.522Z,1010.09
2017-09-29T04:52:32.423Z,1010.11
2017-09-29T04:53:32.339Z,1010.14
2017-09-29T04:54:32.257Z,1010.13
2017-09-29T04:55:32.179Z,1010.11
2017-09-29T04:56:32.098Z,1010.16
2017-09-29T04:57:32.017Z,1010.14
2017-09-29T04:58:31.941Z,1010.16
2017-09-29T04:59:31.863Z,1010.14
2017-09-29T05:00:31.792Z,1010.16
2017-09-29T05:01:31.704Z,1010.15
2017-09-29T05:02:31.625Z,1010.16
2017-09-29T05:03:31.547Z,1010.10
2017-09-29T05:04:31.477Z,1010.11
2017-09-29T05:05:31.399Z,1010.10
2017-09-29T05:06:31.307Z,1010.12
2017-09-29T05:07:31.232Z,1010.13
2017-09-29T05:08:31.154Z,1010.12
2017-09-29T05:09:31.076Z,1010.13
2017-09-29T05:10:31.007Z,1010.09
2017-09-29T05:11:30.920Z,1010.13
2017-09-29T05:12:30.840Z,1010.09
2017-09-29T05:13:30.762Z,1010.13
2017-09-29T05:14:30.679Z,1010.16
2017-09-29T05:15:30.602Z,1010.13
2017-09-29T05:16:30.535Z,1010.13
2017-09-29T05:17:30.453Z,1010.16
2017-09-29T05:18:30.370Z,1010.15
2017-09-29T05:19:30.288Z,1010.12
2017-09-29T05:20:30.210Z,1010.13
2017-09-29T05:21:30.129Z,1010.15
2017-09-29T05:22:30.055Z,1010.13
2017-09-29T05:23:29.977Z,1010.19
2017-09-29T05:24:29.907Z,1010.19
2017-09-29T05:25:29.823Z,1010.21
2017-09-29T05:26:29.737Z,1010.18
2017-09-29T05:27:29.663Z,1010.21
2017-09-29T05:28:29.615Z,1010.21
2017-09-29T05:29:29.506Z,1010.24
2017-09-29T05:30:29.423Z,1010.21
2017-09-29T05:31:29.346Z,1010.22
2017-09-29T05:32:29.275Z,1010.22
2017-09-29T05:33:29.194Z,1010.24
2017-09-29T05:34:29.118Z,1010.25
2017-09-29T05:35:29.041Z,1010.26
2017-09-29T05:36:28.954Z,1010.28
2017-09-29T05:37:28.877Z,1010.27
2017-09-29T05:38:28.793Z,1010.26
2017-09-29T05:39:28.722Z,1010.27
2017-09-29T05:40:28.645Z,1010.27
2017-09-29T05:41:28.564Z,1010.28
2017-09-29T05:42:28.483Z,1010.27
2017-09-29T05:43:28.410Z,1010.28
2017-09-29T05:44:28.329Z,1010.29
2017-09-29T05:45:28.253Z,1010.30
2017-09-29T05:46:28.171Z,1010.28
2017-09-29T05:47:28.095Z,1010.31
2017-09-29T05:48:28.012Z,1010.29
2017-09-29T05:49:27.934Z,1010.31
2017-09-29T05:50:27.858Z,1010.35
2017-09-29T05:51:27.781Z,1010.36
2017-09-29T05:52:27.698Z,1010.35
2017-09-29T05:53:27.623Z,1010.36
2017-09-29T05:54:27.549Z,1010.38
2017-09-29T05:55:27.463Z,1010.35
2017-09-29T05:56:27.385Z,1010.34
2017-09-29T05:57:27.306Z,1010.36
2017-09-29T05:58:27.232Z,1010.37
2017-09-29T05:59:27.150Z,1010.37
2017-09-29T06:00:27.071Z,1010.37
2017-09-29T06:01:26.991Z,1010.40
2017-09-29T06:02:26.917Z,1010.35
2017-09-29T06:03:26.835Z,1010.34
2017-09-29T06:04:26.758Z,1010.36
2017-09-29T06:05:26.682Z,1010.36
2017-09-29T06:06:26.605Z,1010.38
2017-09-29T06:07:26.536Z,1010.41
2017-09-29T06:08:26.447Z,1010.38
2017-09-29T06:09:26.365Z,1010.36
2017-09-29T06:10:26.305Z,1010.41
2017-09-29T06:11:26.212Z,1010.38
2017-09-29T06:12:26.131Z,1010.41
2017-09-29T06:13:26.050Z,1010.44
2017-09-29T06:14:25.973Z,1010.42
2017-09-29T06:15:25.892Z,1010.43
2017-09-29T06:16:25.815Z,1010.41
2017-09-29T06:17:25.740Z,1010.42
2017-09-29T06:18:25.661Z,1010.45
2017-09-29T06:19:25.589Z,1010.45
2017-09-29T06:20:25.504Z,1010.41
2017-09-29T06:21:25.427Z,1010.44
2017-09-29T06:22:25.363Z,1010.42
2017-09-29T06:23:25.264Z,1010.46
2017-09-29T06:24:25.191Z,1010.44
2017-09-29T06:25:25.111Z,1010.48
2017-09-29T06:26:25.033Z,1010.45
2017-09-29T06:27:24.957Z,1010.49
2017-09-29T06:28:24.874Z,1010.47
2017-09-29T06:29:24.797Z,1010.48
2017-09-29T06:30:24.718Z,1010.48
2017-09-29T06:31:24.639Z,1010.51
2017-09-29T06:32:24.565Z,1010.55
2017-09-29T06:33:24.483Z,1010.57
2017-09-29T06:34:24.406Z,1010.54
2017-09-29T06:35:24.325Z,1010.56
2017-09-29T06:36:24.245Z,1010.52
2017-09-29T06:37:24.170Z,1010.54
2017-09-29T06:38:24.089Z,1010.55
2017-09-29T06:39:24.011Z,1010.50
2017-09-29T06:40:23.938Z,1010.51
2017-09-29T06:41:23.863Z,1010.52
2017-09-29T06:42:23.781Z,1010.51
2017-09-29T06:43:23.698Z,1010.51
2017-09-29T06:44:23.628Z,1010.53
2017-09-29T06:45:23.554Z,1010.51
2017-09-29T06:46:23.466Z,1010.54
2017-09-29T06:47:23.388Z,1010.56
2017-09-29T06:48:23.316Z,1010.54
2017-09-29T06:49:23.234Z,1010.58
2017-09-29T06:50:23.152Z,1010.53
2017-09-29T06:51:23.074Z,1010.54
2017-09-29T06:52:23.008Z,1010.56
2017-09-29T06:53:22.920Z,1010.55
2017-09-29T06:54:22.839Z,1010.56
2017-09-29T06:55:22.765Z,1010.59
2017-09-29T06:56:22.685Z,1010.59
2017-09-29T06:57:22.610Z,1010.60
2017-09-29T06:58:22.524Z,1010.65
2017-09-29T06:59:22.453Z,1010.62
2017-09-29T07:00:22.371Z,1010.62
2017-09-29T07:01:22.291Z,1010.63
2017-09-29T07:02:22.215Z,1010.64
2017-09-29T07:03:22.138Z,1010.66
2017-09-29T07:04:22.058Z,1010.66
2017-09-29T07:05:21.981Z,1010.70
2017-09-29T07:06:21.903Z,1010.71
2017-09-29T07:07:21.827Z,1010.71
2017-09-29T07:08:21.750Z,1010.70
2017-09-29T07:09:21.670Z,1010.69
2017-09-29T07:10:21.599Z,1010.68
2017-09-29T07:11:21.527Z,1010.65
2017-09-29T07:12:21.436Z,1010.68
2017-09-29T07:13:21.377Z,1010.70
2017-09-29T07:14:21.285Z,1010.71
2017-09-29T07:15:21.202Z,1010.72
2017-09-29T07:16:21.128Z,1010.70
2017-09-29T07:17:21.052Z,1010.75
2017-09-29T07:18:20.970Z,1010.74
2017-09-29T07:19:20.890Z,1010.77
2017-09-29T07:20:20.812Z,1010.74
2017-09-29T07:21:20.734Z,1010.73
2017-09-29T07:22:20.655Z,1010.74
2017-09-29T07:23:20.582Z,1010.77
2017-09-29T07:24:20.499Z,1010.77
2017-09-29T07:25:20.426Z,1010.80
2017-09-29T07:26:20.347Z,1010.79
2017-09-29T07:27:20.273Z,1010.82
2017-09-29T07:28:20.199Z,1010.83
2017-09-29T07:29:20.115Z,1010.89
2017-09-29T07:30:20.038Z,1010.93
2017-09-29T07:31:19.961Z,1010.97
2017-09-29T07:32:19.878Z,1010.99
2017-09-29T07:33:19.808Z,1010.99
2017-09-29T07:34:19.734Z,1010.95
2017-09-29T07:35:19.659Z,1010.93
2017-09-29T07:36:19.592Z,1010.98
2017-09-29T07:37:19.497Z,1010.95
2017-09-29T07:38:19.424Z,1010.92
2017-09-29T07:39:19.344Z,1010.93
2017-09-29T07:40:19.271Z,1010.92
2017-09-29T07:41:19.769Z,1010.93
2017-09-29T07:42:19.118Z,1010.93
2017-09-29T07:43:19.041Z,1010.96
2017-09-29T07:44:18.962Z,1010.94
2017-09-29T07:45:18.891Z,1010.93
2017-09-29T07:46:18.807Z,1010.93
2017-09-29T07:47:18.728Z,1010.94
2017-09-29T07:48:18.655Z,1010.92
2017-09-29T07:49:18.575Z,1011.01
2017-09-29T07:50:18.503Z,1010.97
2017-09-29T07:51:18.427Z,1010.96
2017-09-29T07:52:18.349Z,1010.99
2017-09-29T07:53:18.272Z,1010.98
2017-09-29T07:54:18.195Z,1010.94
2017-09-29T07:55:18.126Z,1011.00
2017-09-29T07:56:18.045Z,1011.03
2017-09-29T07:57:17.973Z,1010.95
2017-09-29T07:58:17.894Z,1010.98
2017-09-29T07:59:17.816Z,1011.05
2017-09-29T08:00:17.743Z,1011.13
2017-09-29T08:01:17.662Z,1011.15
2017-09-29T08:02:17.596Z,1011.13
2017-09-29T08:03:17.516Z,1011.23
2017-09-29T08:04:17.436Z,1011.15
2017-09-29T08:05:17.369Z,1010.95
2017-09-29T08:06:17.284Z,1010.95
2017-09-29T08:07:17.215Z,1010.97
2017-09-29T08:08:17.133Z,1011.14
2017-09-29T08:09:17.061Z,1011.11
2017-09-29T08:10:16.981Z,1011.19
2017-09-29T08:11:16.910Z,1011.23
2017-09-29T08:12:16.840Z,1011.19
2017-09-29T08:13:16.759Z,1011.26
2017-09-29T08:14:16.686Z,1011.19
2017-09-29T08:15:16.615Z,1011.37
2017-09-29T08:16:16.536Z,1011.18
2017-09-29T08:17:16.462Z,1011.05
2017-09-29T08:18:16.391Z,1011.15
2017-09-29T08:19:16.314Z,1011.01
2017-09-29T08:20:16.241Z,1010.96
2017-09-29T08:21:16.181Z,1010.95
2017-09-29T08:22:16.094Z,1010.93
2017-09-29T08:23:16.026Z,1011.00
2017-09-29T08:24:15.944Z,1010.98
2017-09-29T08:25:15.872Z,1010.93
2017-09-29T08:26:15.810Z,1011.12
2017-09-29T08:27:15.724Z,1011.03
2017-09-29T08:28:15.650Z,1010.90
2017-09-29T08:29:15.577Z,1010.93
2017-09-29T08:30:15.502Z,1010.85
2017-09-29T08:31:15.428Z,1010.90
2017-09-29T08:32:15.350Z,1010.87
2017-09-29T08:33:15.281Z,1010.97
2017-09-29T08:34:15.201Z,1010.94
2017-09-29T08:35:15.132Z,1010.93
2017-09-29T08:36:15.077Z,1010.91
2017-09-29T08:37:14.980Z,1010.89
2017-09-29T08:38:14.927Z,1010.92
2017-09-29T08:39:14.832Z,1010.90
2017-09-29T08:40:14.758Z,1010.96
2017-09-29T08:41:14.690Z,1010.92
2017-09-29T08:42:14.616Z,1010.98
2017-09-29T08:43:14.562Z,1011.08
2017-09-29T08:44:14.464Z,1010.99
2017-09-29T08:45:14.398Z,1010.92
2017-09-29T08:46:14.308Z,1010.92
2017-09-29T08:47:14.235Z,1010.91
2017-09-29T08:48:14.163Z,1010.92
2017-09-29T08:49:14.088Z,1010.93
2017-09-29T08:50:14.013Z,1010.95
2017-09-29T08:51:13.944Z,1010.98
2017-09-29T08:52:13.874Z,1010.91
2017-09-29T08:53:13.791Z,1010.93
2017-09-29T08:54:13.721Z,1010.88
2017-09-29T08:55:13.638Z,1010.92
2017-09-29T08:56:13.562Z,1010.93
2017-09-29T08:57:13.489Z,1010.96
2017-09-29T08:58:13.417Z,1010.94
2017-09-29T08:59:13.339Z,1010.95
2017-09-29T09:00:13.264Z,1010.95
2017-09-29T09:01:13.188Z,1010.91
2017-09-29T09:02:13.117Z,1010.84
2017-09-29T09:03:13.039Z,1010.83
2017-09-29T09:04:12.964Z,1010.82
2017-09-29T09:05:12.892Z,1010.82
2017-09-29T09:06:12.821Z,1010.81
2017-09-29T09:07:12.741Z,1010.86
2017-09-29T09:08:12.673Z,1010.86
2017-09-29T09:09:12.600Z,1010.83
2017-09-29T09:10:12.516Z,1010.81
2017-09-29T09:11:12.446Z,1010.79
2017-09-29T09:12:12.388Z,1010.79
2017-09-29T09:13:12.293Z,1010.79
2017-09-29T09:14:12.217Z,1010.74
2017-09-29T09:15:12.148Z,1010.71
2017-09-29T09:16:12.067Z,1010.77
2017-09-29T09:17:11.998Z,1010.73
2017-09-29T09:18:11.933Z,1010.69
2017-09-29T09:19:11.840Z,1010.69
2017-09-29T09:20:11.783Z,1010.66
2017-09-29T09:21:11.696Z,1010.65
2017-09-29T09:22:11.622Z,1010.64
2017-09-29T09:23:11.546Z,1010.65
2017-09-29T09:24:11.505Z,1010.60
2017-09-29T09:25:11.397Z,1010.55
2017-09-29T09:26:11.317Z,1010.54
2017-09-29T09:27:11.243Z,1010.55
2017-09-29T09:28:11.171Z,1010.55
2017-09-29T09:29:11.100Z,1010.50
2017-09-29T09:30:11.019Z,1010.47
2017-09-29T09:31:10.942Z,1010.47
2017-09-29T09:32:10.868Z,1010.40
2017-09-29T09:33:10.802Z,1010.45
2017-09-29T09:34:10.717Z,1010.42
2017-09-29T09:35:10.640Z,1010.39
2017-09-29T09:36:10.569Z,1010.38
2017-09-29T09:37:10.502Z,1010.35
2017-09-29T09:38:10.419Z,1010.35
2017-09-29T09:39:10.341Z,1010.32
2017-09-29T09:40:10.265Z,1010.35
2017-09-29T09:41:10.192Z,1010.34
2017-09-29T09:42:10.117Z,1010.32
2017-09-29T09:43:10.039Z,1010.33
2017-09-29T09:44:09.962Z,1010.27
2017-09-29T09:45:09.893Z,1010.30
2017-09-29T09:46:09.812Z,1010.31
2017-09-29T09:47:09.735Z,1010.26
2017-09-29T09:48:09.660Z,1010.30
2017-09-29T09:49:09.597Z,1010.29
2017-09-29T09:50:09.509Z,1010.26
2017-09-29T09:51:09.439Z,1010.27
2017-09-29T09:52:09.363Z,1010.30
2017-09-29T09:53:09.281Z,1010.26
2017-09-29T09:54:09.209Z,1010.28
2017-09-29T09:55:09.145Z,1010.26
2017-09-29T09:56:09.083Z,1010.30
2017-09-29T09:57:08.982Z,1010.30
2017-09-29T09:58:08.905Z,1010.26
2017-09-29T09:59:08.832Z,1010.25
2017-09-29T10:00:08.757Z,1010.24
2017-09-29T10:01:08.678Z,1010.26
2017-09-29T10:02:08.599Z,1010.25
2017-09-29T10:03:08.566Z,1010.27
2017-09-29T10:04:08.453Z,1010.22
2017-09-29T10:05:08.407Z,1010.21
2017-09-29T10:06:08.296Z,1010.22
2017-09-29T10:07:08.222Z,1010.17
2017-09-29T10:08:08.151Z,1010.20
2017-09-29T10:09:08.072Z,1010.20
2017-09-29T10:10:08.006Z,1010.16
2017-09-29T10:11:07.927Z,1010.21
2017-09-29T10:12:07.839Z,1010.17
2017-09-29T10:13:07.768Z,1010.17
2017-09-29T10:14:07.687Z,1010.19
2017-09-29T10:15:07.619Z,1010.19
2017-09-29T10:16:07.535Z,1010.17
2017-09-29T10:17:07.458Z,1010.16
2017-09-29T10:18:07.381Z,1010.14
2017-09-29T10:19:07.315Z,1010.14
2017-09-29T10:20:07.241Z,1010.15
2017-09-29T10:21:07.153Z,1010.10
2017-09-29T10:22:07.079Z,1010.11
2017-09-29T10:23:07.005Z,1010.13
2017-09-29T10:24:06.924Z,1010.14
2017-09-29T10:25:06.851Z,1010.16
2017-09-29T10:26:06.772Z,1010.15
2017-09-29T10:27:06.697Z,1010.19
2017-09-29T10:28:06.627Z,1010.24
2017-09-29T10:29:06.544Z,1010.27
2017-09-29T10:30:06.476Z,1010.24
2017-09-29T10:31:06.392Z,1010.25
2017-09-29T10:32:06.315Z,1010.25
2017-09-29T10:33:06.245Z,1010.32
2017-09-29T10:34:06.173Z,1010.27
2017-09-29T10:35:06.088Z,1010.29
2017-09-29T10:36:06.021Z,1010.30
2017-09-29T10:37:05.938Z,1010.26
2017-09-29T10:38:05.862Z,1010.28
2017-09-29T10:39:05.792Z,1010.27
2017-09-29T10:40:05.727Z,1010.24
2017-09-29T10:41:05.633Z,1010.18
2017-09-29T10:42:05.557Z,1010.15
2017-09-29T10:43:05.488Z,1010.12
2017-09-29T10:44:05.409Z,1010.12
2017-09-29T10:45:05.333Z,1010.09
2017-09-29T10:46:05.250Z,1010.12
2017-09-29T10:47:05.183Z,1010.11
2017-09-29T10:48:05.112Z,1010.14
2017-09-29T10:49:05.029Z,1010.14
2017-09-29T10:50:04.955Z,1010.14
2017-09-29T10:51:04.888Z,1010.07
2017-09-29T10:52:04.808Z,1010.05
2017-09-29T10:53:04.733Z,1010.00
2017-09-29T10:54:04.652Z,1010.02
2017-09-29T10:55:04.581Z,1010.14
2017-09-29T10:56:04.520Z,1010.12
2017-09-29T10:57:04.434Z,1010.10
2017-09-29T10:58:04.352Z,1010.11
2017-09-29T10:59:04.281Z,1010.22
2017-09-29T11:00:04.201Z,1010.16
2017-09-29T11:01:04.132Z,1010.19
2017-09-29T11:02:04.056Z,1010.25
2017-09-29T11:03:03.987Z,1010.26
2017-09-29T11:04:03.902Z,1010.47
2017-09-29T11:05:03.827Z,1010.27
2017-09-29T11:06:03.759Z,1010.25
2017-09-29T11:07:03.680Z,1010.62
2017-09-29T11:08:03.610Z,1010.78
2017-09-29T11:09:03.535Z,1010.55
2017-09-29T11:10:03.458Z,1010.21
2017-09-29T11:11:03.385Z,1010.26
2017-09-29T11:12:03.354Z,1010.26
2017-09-29T11:13:03.243Z,1010.18
2017-09-29T11:14:03.169Z,1010.23
2017-09-29T11:15:03.097Z,1010.21
2017-09-29T11:16:03.025Z,1010.47
2017-09-29T11:17:02.956Z,1010.62
2017-09-29T11:18:02.964Z,1010.70
2017-09-29T11:19:02.810Z,1010.23
2017-09-29T11:20:02.736Z,1010.45
2017-09-29T11:21:02.669Z,1010.54
2017-09-29T11:22:02.596Z,1010.59
2017-09-29T11:23:02.530Z,1010.64
2017-09-29T11:24:02.455Z,1010.59
2017-09-29T11:25:02.420Z,1010.23
2017-09-29T11:26:02.314Z,1010.32
2017-09-29T11:27:02.243Z,1010.63
2017-09-29T11:28:02.175Z,1010.56
2017-09-29T11:29:02.109Z,1010.71
2017-09-29T11:30:02.044Z,1010.78
2017-09-29T11:31:01.970Z,1010.88
2017-09-29T11:32:01.926Z,1010.81
2017-09-29T11:33:01.835Z,1010.89
2017-09-29T11:34:01.772Z,1010.91
2017-09-29T11:35:01.702Z,1010.95
2017-09-29T11:36:01.632Z,1010.72
2017-09-29T11:37:01.560Z,1010.90
2017-09-29T11:38:01.498Z,1010.94
2017-09-29T11:39:01.421Z,1010.79
2017-09-29T11:40:01.366Z,1010.86
2017-09-29T11:41:01.287Z,1010.87
2017-09-29T11:42:01.223Z,1010.82
2017-09-29T11:43:01.144Z,1010.64
2017-09-29T11:44:01.069Z,1010.11
2017-09-29T11:45:01.009Z,1009.98
2017-09-29T11:46:00.934Z,1009.90
2017-09-29T11:47:00.854Z,1009.88
2017-09-29T11:48:00.790Z,1009.82
2017-09-29T11:49:00.718Z,1009.79
2017-09-29T11:50:00.641Z,1009.80
2017-09-29T11:51:00.568Z,1009.76
2017-09-29T11:52:00.508Z,1009.76
2017-09-29T11:53:00.436Z,1009.74
2017-09-29T11:54:00.362Z,1009.76
2017-09-29T11:55:00.288Z,1009.77
2017-09-29T11:56:00.218Z,1009.71
2017-09-29T11:57:00.150Z,1009.66
2017-09-29T11:58:00.070Z,1009.65
2017-09-29T11:59:00.005Z,1009.64
2017-09-29T11:59:59.934Z,1009.59
2017-09-29T12:00:59.870Z,1009.47
2017-09-29T12:01:59.810Z,1009.40
2017-09-29T12:02:59.717Z,1009.47
2017-09-29T12:03:59.654Z,1009.47
2017-09-29T12:04:59.571Z,1009.49